sensor_id;sensor_type;location;lat;lon;timestamp;P1;P2;P0
65973;PMS5003;52729;54.906;73.316;2022-07-29T00:02:53;5.75;5.00;2.00
65973;PMS5003;52729;54.906;73.316;2022-07-29T00:05:59;5.00;5.00;2.00
65973;PMS5003;52729;54.906;73.316;2022-07-29T00:09:00;5.50;5.00;0.00
65973;PMS5003;52729;54.906;73.316;2022-07-29T00:12:06;6.00;5.00;0.00
65973;PMS5003;52729;54.906;73.316;2022-07-29T00:15:08;8.00;7.25;0.00
65973;PMS5003;52729;54.906;73.316;2022-07-29T00:18:09;8.00;7.75;1.50
65973;PMS5003;52729;54.906;73.316;2022-07-29T00:21:10;10.00;8.00;3.00
65973;PMS5003;52729;54.906;73.316;2022-07-29T00:24:15;7.50;6.50;1.25
65973;PMS5003;52729;54.906;73.316;2022-07-29T00:27:17;7.00;7.00;0.00
65973;PMS5003;52729;54.906;73.316;2022-07-29T00:30:19;5.00;5.00;0.00
65973;PMS5003;52729;54.906;73.316;2022-07-29T00:33:26;6.00;5.00;1.50
65973;PMS5003;52729;54.906;73.316;2022-07-29T00:36:27;5.25;5.00;1.00
65973;PMS5003;52729;54.906;73.316;2022-07-29T00:39:28;4.75;4.00;1.00
65973;PMS5003;52729;54.906;73.316;2022-07-29T00:42:29;6.00;5.00;1.00
65973;PMS5003;52729;54.906;73.316;2022-07-29T00:45:31;4.00;3.00;0.75
65973;PMS5003;52729;54.906;73.316;2022-07-29T00:48:32;5.00;4.00;0.00
65973;PMS5003;52729;54.906;73.316;2022-07-29T00:51:37;5.00;4.00;0.00
65973;PMS5003;52729;54.906;73.316;2022-07-29T00:54:48;4.25;4.00;0.00
65973;PMS5003;52729;54.906;73.316;2022-07-29T00:57:55;2.00;2.00;0.00
65973;PMS5003;52729;54.906;73.316;2022-07-29T01:00:57;1.00;1.00;0.00
65973;PMS5003;52729;54.906;73.316;2022-07-29T01:03:58;3.00;3.00;0.00
65973;PMS5003;52729;54.906;73.316;2022-07-29T01:07:00;2.00;2.00;0.00
65973;PMS5003;52729;54.906;73.316;2022-07-29T01:10:12;1.25;1.25;0.00
65973;PMS5003;52729;54.906;73.316;2022-07-29T01:13:24;2.00;0.75;0.00
65973;PMS5003;52729;54.906;73.316;2022-07-29T01:16:28;0.50;0.00;0.00
65973;PMS5003;52729;54.906;73.316;2022-07-29T01:23:07;1.25;0.25;0.00
65973;PMS5003;52729;54.906;73.316;2022-07-29T01:29:41;1.00;0.00;0.00
65973;PMS5003;52729;54.906;73.316;2022-07-29T01:32:45;1.00;1.00;0.00
65973;PMS5003;52729;54.906;73.316;2022-07-29T01:35:48;1.00;1.00;0.00
65973;PMS5003;52729;54.906;73.316;2022-07-29T01:39:02;1.25;1.00;0.00
65973;PMS5003;52729;54.906;73.316;2022-07-29T01:42:20;0.00;0.00;0.00
65973;PMS5003;52729;54.906;73.316;2022-07-29T01:48:49;0.00;0.00;0.00
65973;PMS5003;52729;54.906;73.316;2022-07-29T01:52:04;1.00;1.00;0.00
65973;PMS5003;52729;54.906;73.316;2022-07-29T01:55:13;3.50;3.00;0.00
65973;PMS5003;52729;54.906;73.316;2022-07-29T01:58:14;2.00;2.00;0.00
65973;PMS5003;52729;54.906;73.316;2022-07-29T02:01:18;2.00;2.00;0.00
65973;PMS5003;52729;54.906;73.316;2022-07-29T02:04:20;1.00;1.00;0.00
65973;PMS5003;52729;54.906;73.316;2022-07-29T02:07:23;1.00;1.00;0.00
65973;PMS5003;52729;54.906;73.316;2022-07-29T02:10:26;3.75;3.75;0.00
65973;PMS5003;52729;54.906;73.316;2022-07-29T02:13:28;3.00;3.00;0.00
65973;PMS5003;52729;54.906;73.316;2022-07-29T02:16:30;3.00;3.00;0.00
65973;PMS5003;52729;54.906;73.316;2022-07-29T02:19:32;3.00;3.00;0.00
65973;PMS5003;52729;54.906;73.316;2022-07-29T02:22:34;4.25;3.25;0.00
65973;PMS5003;52729;54.906;73.316;2022-07-29T02:25:36;3.00;3.00;0.00
65973;PMS5003;52729;54.906;73.316;2022-07-29T02:28:38;2.00;2.00;0.00
65973;PMS5003;52729;54.906;73.316;2022-07-29T02:31:39;2.50;2.25;0.00
65973;PMS5003;52729;54.906;73.316;2022-07-29T02:34:43;2.75;2.00;0.00
65973;PMS5003;52729;54.906;73.316;2022-07-29T02:37:46;1.00;1.00;0.00
65973;PMS5003;52729;54.906;73.316;2022-07-29T02:41:08;3.75;3.75;0.00
65973;PMS5003;52729;54.906;73.316;2022-07-29T02:44:17;4.25;4.00;0.00
65973;PMS5003;52729;54.906;73.316;2022-07-29T02:47:21;3.00;3.00;0.00
65973;PMS5003;52729;54.906;73.316;2022-07-29T02:50:27;4.00;3.50;0.00
65973;PMS5003;52729;54.906;73.316;2022-07-29T02:53:35;9.50;7.50;0.00
65973;PMS5003;52729;54.906;73.316;2022-07-29T02:56:37;10.00;9.00;3.00
65973;PMS5003;52729;54.906;73.316;2022-07-29T02:59:42;11.00;9.25;3.00
65973;PMS5003;52729;54.906;73.316;2022-07-29T03:02:45;9.75;7.50;3.00
65973;PMS5003;52729;54.906;73.316;2022-07-29T03:05:53;10.00;8.50;2.50
65973;PMS5003;52729;54.906;73.316;2022-07-29T03:08:58;11.25;9.00;5.00
65973;PMS5003;52729;54.906;73.316;2022-07-29T03:12:05;12.00;9.00;3.00
65973;PMS5003;52729;54.906;73.316;2022-07-29T03:15:07;9.75;7.75;2.00
65973;PMS5003;52729;54.906;73.316;2022-07-29T03:18:09;6.00;6.00;2.00
65973;PMS5003;52729;54.906;73.316;2022-07-29T03:21:10;2.00;2.00;0.00
65973;PMS5003;52729;54.906;73.316;2022-07-29T03:24:24;1.50;1.25;0.00
65973;PMS5003;52729;54.906;73.316;2022-07-29T03:27:25;3.25;3.25;0.00
65973;PMS5003;52729;54.906;73.316;2022-07-29T03:30:26;1.00;1.00;0.00
65973;PMS5003;52729;54.906;73.316;2022-07-29T03:33:27;1.50;0.50;0.00
65973;PMS5003;52729;54.906;73.316;2022-07-29T03:36:30;1.00;1.00;0.00
65973;PMS5003;52729;54.906;73.316;2022-07-29T03:39:33;0.00;0.00;0.00
65973;PMS5003;52729;54.906;73.316;2022-07-29T03:42:36;0.00;0.00;0.00
65973;PMS5003;52729;54.906;73.316;2022-07-29T03:45:44;0.00;0.00;0.00
65973;PMS5003;52729;54.906;73.316;2022-07-29T03:48:46;0.00;0.00;0.00
65973;PMS5003;52729;54.906;73.316;2022-07-29T03:51:49;0.00;0.00;0.00
65973;PMS5003;52729;54.906;73.316;2022-07-29T03:54:50;1.00;1.00;0.00
65973;PMS5003;52729;54.906;73.316;2022-07-29T03:57:51;0.00;0.00;0.00
65973;PMS5003;52729;54.906;73.316;2022-07-29T04:00:53;0.00;0.00;0.00
65973;PMS5003;52729;54.906;73.316;2022-07-29T04:04:00;0.00;0.00;0.00
65973;PMS5003;52729;54.906;73.316;2022-07-29T04:07:01;0.00;0.00;0.00
65973;PMS5003;52729;54.906;73.316;2022-07-29T04:10:03;0.00;0.00;0.00
65973;PMS5003;52729;54.906;73.316;2022-07-29T04:13:08;0.00;0.00;0.00
65973;PMS5003;52729;54.906;73.316;2022-07-29T04:16:09;0.00;0.00;0.00
65973;PMS5003;52729;54.906;73.316;2022-07-29T04:19:11;0.00;0.00;0.00
65973;PMS5003;52729;54.906;73.316;2022-07-29T04:22:12;0.00;0.00;0.00
65973;PMS5003;52729;54.906;73.316;2022-07-29T04:25:13;0.00;0.00;0.00
65973;PMS5003;52729;54.906;73.316;2022-07-29T04:28:14;1.00;1.00;0.00
65973;PMS5003;52729;54.906;73.316;2022-07-29T04:31:15;4.75;4.75;1.00
65973;PMS5003;52729;54.906;73.316;2022-07-29T04:34:16;10.50;8.75;3.25
65973;PMS5003;52729;54.906;73.316;2022-07-29T04:37:22;14.50;12.25;5.50
65973;PMS5003;52729;54.906;73.316;2022-07-29T04:40:31;19.00;17.50;6.50
65973;PMS5003;52729;54.906;73.316;2022-07-29T04:43:34;20.50;19.50;6.00
65973;PMS5003;52729;54.906;73.316;2022-07-29T04:46:36;19.00;18.50;7.00
65973;PMS5003;52729;54.906;73.316;2022-07-29T04:49:39;26.75;23.00;10.00
65973;PMS5003;52729;54.906;73.316;2022-07-29T04:52:40;30.50;28.75;13.50
65973;PMS5003;52729;54.906;73.316;2022-07-29T04:55:41;27.00;26.00;14.00
65973;PMS5003;52729;54.906;73.316;2022-07-29T04:58:53;24.50;24.50;12.25
65973;PMS5003;52729;54.906;73.316;2022-07-29T05:02:04;29.00;28.50;13.75
65973;PMS5003;52729;54.906;73.316;2022-07-29T05:05:05;30.50;28.75;14.50
65973;PMS5003;52729;54.906;73.316;2022-07-29T05:08:06;25.50;24.50;11.50
65973;PMS5003;52729;54.906;73.316;2022-07-29T05:11:07;22.50;21.50;8.25
65973;PMS5003;52729;54.906;73.316;2022-07-29T05:14:08;23.75;19.00;6.50
65973;PMS5003;52729;54.906;73.316;2022-07-29T05:17:10;21.75;18.50;7.00
65973;PMS5003;52729;54.906;73.316;2022-07-29T05:20:11;22.25;19.00;7.50
65973;PMS5003;52729;54.906;73.316;2022-07-29T05:23:12;20.25;19.00;7.25
65973;PMS5003;52729;54.906;73.316;2022-07-29T05:26:16;20.00;17.25;7.25
65973;PMS5003;52729;54.906;73.316;2022-07-29T05:29:17;20.50;19.00;10.00
65973;PMS5003;52729;54.906;73.316;2022-07-29T05:32:18;22.75;20.50;8.75
65973;PMS5003;52729;54.906;73.316;2022-07-29T05:35:19;20.50;18.25;7.25
65973;PMS5003;52729;54.906;73.316;2022-07-29T05:38:20;24.00;20.50;9.50
65973;PMS5003;52729;54.906;73.316;2022-07-29T05:41:21;28.50;24.50;11.25
65973;PMS5003;52729;54.906;73.316;2022-07-29T05:44:36;29.00;27.00;13.00
65973;PMS5003;52729;54.906;73.316;2022-07-29T05:47:37;21.50;19.75;8.50
65973;PMS5003;52729;54.906;73.316;2022-07-29T05:50:42;22.00;18.75;5.50
65973;PMS5003;52729;54.906;73.316;2022-07-29T05:53:48;19.75;17.50;6.25
65973;PMS5003;52729;54.906;73.316;2022-07-29T05:57:00;22.50;20.50;7.00
65973;PMS5003;52729;54.906;73.316;2022-07-29T06:00:01;24.00;22.00;10.00
65973;PMS5003;52729;54.906;73.316;2022-07-29T06:03:22;21.00;19.25;9.25
65973;PMS5003;52729;54.906;73.316;2022-07-29T06:06:23;22.00;20.75;10.00
65973;PMS5003;52729;54.906;73.316;2022-07-29T06:09:24;22.00;20.75;7.00
65973;PMS5003;52729;54.906;73.316;2022-07-29T06:12:26;17.00;17.00;6.50
65973;PMS5003;52729;54.906;73.316;2022-07-29T06:15:27;21.75;21.50;10.75
65973;PMS5003;52729;54.906;73.316;2022-07-29T06:18:28;20.00;19.50;6.75
65973;PMS5003;52729;54.906;73.316;2022-07-29T06:21:34;23.25;22.00;10.00
65973;PMS5003;52729;54.906;73.316;2022-07-29T06:24:35;23.75;22.00;9.00
65973;PMS5003;52729;54.906;73.316;2022-07-29T06:27:42;22.00;21.25;8.75
65973;PMS5003;52729;54.906;73.316;2022-07-29T06:30:43;22.00;21.25;9.00
65973;PMS5003;52729;54.906;73.316;2022-07-29T06:33:44;23.50;21.75;10.75
65973;PMS5003;52729;54.906;73.316;2022-07-29T06:36:45;25.25;23.00;10.00
65973;PMS5003;52729;54.906;73.316;2022-07-29T06:39:55;21.50;19.00;7.00
65973;PMS5003;52729;54.906;73.316;2022-07-29T06:43:24;20.00;17.25;6.25
65973;PMS5003;52729;54.906;73.316;2022-07-29T06:46:26;20.00;19.00;8.00
65973;PMS5003;52729;54.906;73.316;2022-07-29T06:49:28;19.75;18.50;9.50
65973;PMS5003;52729;54.906;73.316;2022-07-29T06:52:29;21.00;18.00;9.00
65973;PMS5003;52729;54.906;73.316;2022-07-29T06:55:30;22.00;19.00;8.50
65973;PMS5003;52729;54.906;73.316;2022-07-29T06:58:31;24.00;22.00;9.00
65973;PMS5003;52729;54.906;73.316;2022-07-29T07:01:37;19.75;19.25;8.50
65973;PMS5003;52729;54.906;73.316;2022-07-29T07:04:43;19.00;17.75;7.00
65973;PMS5003;52729;54.906;73.316;2022-07-29T07:07:50;20.00;17.50;8.75
65973;PMS5003;52729;54.906;73.316;2022-07-29T07:10:51;20.50;18.50;8.00
65973;PMS5003;52729;54.906;73.316;2022-07-29T07:13:52;20.25;19.00;9.75
65973;PMS5003;52729;54.906;73.316;2022-07-29T07:16:58;22.25;20.50;9.25
65973;PMS5003;52729;54.906;73.316;2022-07-29T07:20:01;22.00;22.00;11.50
65973;PMS5003;52729;54.906;73.316;2022-07-29T07:23:12;20.00;20.00;9.75
65973;PMS5003;52729;54.906;73.316;2022-07-29T07:26:13;22.50;20.00;8.00
65973;PMS5003;52729;54.906;73.316;2022-07-29T07:29:14;22.00;18.00;6.75
65973;PMS5003;52729;54.906;73.316;2022-07-29T07:32:16;22.50;18.25;9.50
65973;PMS5003;52729;54.906;73.316;2022-07-29T07:35:17;23.00;21.25;10.00
65973;PMS5003;52729;54.906;73.316;2022-07-29T07:38:19;25.75;23.00;10.75
65973;PMS5003;52729;54.906;73.316;2022-07-29T07:41:20;24.75;22.25;9.25
65973;PMS5003;52729;54.906;73.316;2022-07-29T07:44:21;21.50;20.50;8.25
65973;PMS5003;52729;54.906;73.316;2022-07-29T07:47:22;17.50;17.50;7.00
65973;PMS5003;52729;54.906;73.316;2022-07-29T07:50:24;19.00;19.00;6.25
65973;PMS5003;52729;54.906;73.316;2022-07-29T07:53:25;20.00;18.75;7.25
65973;PMS5003;52729;54.906;73.316;2022-07-29T07:56:26;20.00;19.00;8.00
65973;PMS5003;52729;54.906;73.316;2022-07-29T07:59:37;17.50;17.50;6.75
65973;PMS5003;52729;54.906;73.316;2022-07-29T08:02:39;20.00;18.50;9.75
65973;PMS5003;52729;54.906;73.316;2022-07-29T08:05:40;21.25;20.00;10.00
65973;PMS5003;52729;54.906;73.316;2022-07-29T08:08:41;34.50;30.75;18.50
65973;PMS5003;52729;54.906;73.316;2022-07-29T08:11:43;36.50;31.25;21.50
65973;PMS5003;52729;54.906;73.316;2022-07-29T08:14:53;33.00;30.00;19.50
65973;PMS5003;52729;54.906;73.316;2022-07-29T08:17:55;25.25;23.50;14.50
65973;PMS5003;52729;54.906;73.316;2022-07-29T08:20:56;21.00;21.00;12.00
65973;PMS5003;52729;54.906;73.316;2022-07-29T08:23:57;19.00;19.00;8.00
65973;PMS5003;52729;54.906;73.316;2022-07-29T08:27:19;18.00;18.00;7.00
65973;PMS5003;52729;54.906;73.316;2022-07-29T08:30:21;19.25;18.50;7.00
65973;PMS5003;52729;54.906;73.316;2022-07-29T08:33:22;17.00;16.00;7.00
65973;PMS5003;52729;54.906;73.316;2022-07-29T08:36:23;21.25;19.50;8.00
65973;PMS5003;52729;54.906;73.316;2022-07-29T08:39:24;22.00;19.75;9.00
65973;PMS5003;52729;54.906;73.316;2022-07-29T08:42:30;17.50;17.50;7.00
65973;PMS5003;52729;54.906;73.316;2022-07-29T08:45:34;18.00;17.00;6.50
65973;PMS5003;52729;54.906;73.316;2022-07-29T08:48:41;18.50;17.50;6.25
65973;PMS5003;52729;54.906;73.316;2022-07-29T08:51:48;18.50;17.50;7.75
65973;PMS5003;52729;54.906;73.316;2022-07-29T08:54:50;18.00;16.25;8.00
65973;PMS5003;52729;54.906;73.316;2022-07-29T08:57:52;17.00;17.00;8.00
65973;PMS5003;52729;54.906;73.316;2022-07-29T09:01:04;16.50;16.50;7.25
65973;PMS5003;52729;54.906;73.316;2022-07-29T09:04:15;17.75;16.00;7.00
65973;PMS5003;52729;54.906;73.316;2022-07-29T09:07:22;16.00;15.25;6.00
65973;PMS5003;52729;54.906;73.316;2022-07-29T09:10:25;16.00;15.00;7.00
65973;PMS5003;52729;54.906;73.316;2022-07-29T09:13:27;16.00;15.00;6.00
65973;PMS5003;52729;54.906;73.316;2022-07-29T09:20:08;18.00;17.00;8.00
65973;PMS5003;52729;54.906;73.316;2022-07-29T09:23:09;17.25;16.00;8.50
65973;PMS5003;52729;54.906;73.316;2022-07-29T09:26:10;18.75;17.00;8.00
65973;PMS5003;52729;54.906;73.316;2022-07-29T09:29:19;17.50;16.50;7.00
65973;PMS5003;52729;54.906;73.316;2022-07-29T09:32:27;17.00;17.00;7.75
65973;PMS5003;52729;54.906;73.316;2022-07-29T09:35:29;18.00;18.00;8.00
65973;PMS5003;52729;54.906;73.316;2022-07-29T09:38:31;18.00;16.75;7.00
65973;PMS5003;52729;54.906;73.316;2022-07-29T09:41:51;18.50;18.50;9.00
65973;PMS5003;52729;54.906;73.316;2022-07-29T09:45:01;19.00;18.00;8.00
65973;PMS5003;52729;54.906;73.316;2022-07-29T09:48:16;17.00;16.00;6.25
65973;PMS5003;52729;54.906;73.316;2022-07-29T09:51:18;17.50;16.00;7.00
65973;PMS5003;52729;54.906;73.316;2022-07-29T09:54:23;21.00;19.50;9.00
65973;PMS5003;52729;54.906;73.316;2022-07-29T09:57:28;17.50;16.50;7.50
65973;PMS5003;52729;54.906;73.316;2022-07-29T10:00:29;16.00;15.00;7.00
65973;PMS5003;52729;54.906;73.316;2022-07-29T10:03:52;17.00;16.00;8.00
65973;PMS5003;52729;54.906;73.316;2022-07-29T10:06:56;15.50;15.25;6.50
65973;PMS5003;52729;54.906;73.316;2022-07-29T10:09:58;16.50;16.50;5.25
65973;PMS5003;52729;54.906;73.316;2022-07-29T10:13:00;17.00;16.00;6.75
65973;PMS5003;52729;54.906;73.316;2022-07-29T10:16:02;15.00;15.00;7.00
65973;PMS5003;52729;54.906;73.316;2022-07-29T10:19:03;15.25;15.00;7.25
65973;PMS5003;52729;54.906;73.316;2022-07-29T10:22:05;17.75;16.75;8.00
65973;PMS5003;52729;54.906;73.316;2022-07-29T10:25:14;18.50;18.00;8.75
65973;PMS5003;52729;54.906;73.316;2022-07-29T10:28:21;19.25;18.50;9.00
65973;PMS5003;52729;54.906;73.316;2022-07-29T10:31:26;20.25;19.00;6.75
65973;PMS5003;52729;54.906;73.316;2022-07-29T10:34:36;20.50;19.50;7.50
65973;PMS5003;52729;54.906;73.316;2022-07-29T10:41:00;19.00;17.50;8.25
65973;PMS5003;52729;54.906;73.316;2022-07-29T10:44:24;18.00;17.00;7.00
65973;PMS5003;52729;54.906;73.316;2022-07-29T10:47:26;19.00;17.00;8.00
65973;PMS5003;52729;54.906;73.316;2022-07-29T10:50:27;18.50;16.75;9.00
65973;PMS5003;52729;54.906;73.316;2022-07-29T10:53:48;17.50;15.00;7.00
65973;PMS5003;52729;54.906;73.316;2022-07-29T10:56:55;18.75;17.50;7.50
65973;PMS5003;52729;54.906;73.316;2022-07-29T11:03:09;18.00;16.00;7.00
65973;PMS5003;52729;54.906;73.316;2022-07-29T11:06:11;18.00;16.50;6.25
65973;PMS5003;52729;54.906;73.316;2022-07-29T11:09:18;19.75;18.00;7.00
65973;PMS5003;52729;54.906;73.316;2022-07-29T11:12:46;18.00;17.00;7.00
65973;PMS5003;52729;54.906;73.316;2022-07-29T11:15:56;18.50;16.75;9.00
65973;PMS5003;52729;54.906;73.316;2022-07-29T11:22:31;17.00;16.00;8.00
65973;PMS5003;52729;54.906;73.316;2022-07-29T11:25:38;16.00;15.25;6.00
65973;PMS5003;52729;54.906;73.316;2022-07-29T11:32:13;18.00;18.00;7.50
65973;PMS5003;52729;54.906;73.316;2022-07-29T11:35:21;18.50;18.50;7.00
65973;PMS5003;52729;54.906;73.316;2022-07-29T11:38:30;19.00;19.00;6.00
65973;PMS5003;52729;54.906;73.316;2022-07-29T11:41:30;16.00;15.00;4.75
65973;PMS5003;52729;54.906;73.316;2022-07-29T11:48:05;16.00;16.00;7.50
65973;PMS5003;52729;54.906;73.316;2022-07-29T11:51:16;17.00;17.00;8.00
65973;PMS5003;52729;54.906;73.316;2022-07-29T11:54:32;16.00;16.00;6.25
65973;PMS5003;52729;54.906;73.316;2022-07-29T11:57:34;15.00;15.00;7.00
65973;PMS5003;52729;54.906;73.316;2022-07-29T12:00:37;11.00;11.00;5.25
65973;PMS5003;52729;54.906;73.316;2022-07-29T12:03:38;10.75;10.75;5.00
65973;PMS5003;52729;54.906;73.316;2022-07-29T12:06:39;12.75;11.25;5.00
65973;PMS5003;52729;54.906;73.316;2022-07-29T12:09:48;13.00;10.25;5.00
65973;PMS5003;52729;54.906;73.316;2022-07-29T12:12:51;14.50;13.50;5.00
65973;PMS5003;52729;54.906;73.316;2022-07-29T12:15:53;15.00;14.50;6.00
65973;PMS5003;52729;54.906;73.316;2022-07-29T12:19:04;16.75;13.00;6.00
65973;PMS5003;52729;54.906;73.316;2022-07-29T12:22:10;13.50;10.25;5.00
65973;PMS5003;52729;54.906;73.316;2022-07-29T12:25:12;10.00;7.50;4.00
65973;PMS5003;52729;54.906;73.316;2022-07-29T12:28:26;9.50;8.50;5.25
65973;PMS5003;52729;54.906;73.316;2022-07-29T12:31:30;12.00;11.00;5.50
65973;PMS5003;52729;54.906;73.316;2022-07-29T12:34:31;13.75;12.75;5.00
65973;PMS5003;52729;54.906;73.316;2022-07-29T12:37:36;12.00;10.50;4.50
65973;PMS5003;52729;54.906;73.316;2022-07-29T12:40:46;12.25;10.75;6.00
65973;PMS5003;52729;54.906;73.316;2022-07-29T12:43:53;11.00;10.00;6.00
65973;PMS5003;52729;54.906;73.316;2022-07-29T12:47:01;11.75;11.25;5.25
65973;PMS5003;52729;54.906;73.316;2022-07-29T12:50:11;8.50;8.50;5.50
65973;PMS5003;52729;54.906;73.316;2022-07-29T12:53:12;10.50;9.75;5.00
65973;PMS5003;52729;54.906;73.316;2022-07-29T12:56:24;8.25;8.25;5.00
65973;PMS5003;52729;54.906;73.316;2022-07-29T12:59:25;6.25;6.00;4.00
65973;PMS5003;52729;54.906;73.316;2022-07-29T13:02:26;7.00;7.00;3.00
65973;PMS5003;52729;54.906;73.316;2022-07-29T13:05:40;11.50;9.75;5.00
65973;PMS5003;52729;54.906;73.316;2022-07-29T13:09:05;10.00;8.00;4.00
65973;PMS5003;52729;54.906;73.316;2022-07-29T13:12:08;10.25;9.00;4.00
65973;PMS5003;52729;54.906;73.316;2022-07-29T13:15:16;12.00;10.00;4.00
65973;PMS5003;52729;54.906;73.316;2022-07-29T13:18:31;10.00;9.50;4.75
65973;PMS5003;52729;54.906;73.316;2022-07-29T13:21:32;7.00;7.00;3.00
65973;PMS5003;52729;54.906;73.316;2022-07-29T13:24:34;7.00;7.00;2.00
65973;PMS5003;52729;54.906;73.316;2022-07-29T13:27:40;8.00;8.00;3.00
65973;PMS5003;52729;54.906;73.316;2022-07-29T13:30:41;6.00;6.00;3.00
65973;PMS5003;52729;54.906;73.316;2022-07-29T13:33:42;9.00;8.00;2.25
65973;PMS5003;52729;54.906;73.316;2022-07-29T13:36:43;8.75;7.75;3.00
65973;PMS5003;52729;54.906;73.316;2022-07-29T13:39:44;8.25;8.25;3.00
65973;PMS5003;52729;54.906;73.316;2022-07-29T13:42:45;6.00;6.00;2.00
65973;PMS5003;52729;54.906;73.316;2022-07-29T13:45:47;5.50;5.50;2.00
65973;PMS5003;52729;54.906;73.316;2022-07-29T13:48:48;8.00;7.00;2.00
65973;PMS5003;52729;54.906;73.316;2022-07-29T13:51:49;7.00;6.50;2.00
65973;PMS5003;52729;54.906;73.316;2022-07-29T13:54:50;9.25;6.50;2.75
65973;PMS5003;52729;54.906;73.316;2022-07-29T13:57:57;8.75;8.75;3.00
65973;PMS5003;52729;54.906;73.316;2022-07-29T14:00:58;8.00;7.00;2.50
65973;PMS5003;52729;54.906;73.316;2022-07-29T14:03:59;8.00;7.00;3.00
65973;PMS5003;52729;54.906;73.316;2022-07-29T14:07:00;7.00;7.00;3.00
65973;PMS5003;52729;54.906;73.316;2022-07-29T14:10:02;7.75;7.00;3.00
65973;PMS5003;52729;54.906;73.316;2022-07-29T14:13:03;5.00;4.00;2.00
65973;PMS5003;52729;54.906;73.316;2022-07-29T14:16:04;4.00;4.00;1.00
65973;PMS5003;52729;54.906;73.316;2022-07-29T14:19:05;5.00;5.00;2.50
65973;PMS5003;52729;54.906;73.316;2022-07-29T14:22:16;7.50;7.00;2.50
65973;PMS5003;52729;54.906;73.316;2022-07-29T14:25:19;8.00;7.00;2.50
65973;PMS5003;52729;54.906;73.316;2022-07-29T14:28:20;9.00;8.00;4.00
65973;PMS5003;52729;54.906;73.316;2022-07-29T14:31:31;6.75;6.50;2.50
65973;PMS5003;52729;54.906;73.316;2022-07-29T14:34:32;7.00;7.00;3.25
65973;PMS5003;52729;54.906;73.316;2022-07-29T14:37:34;7.50;7.50;3.00
65973;PMS5003;52729;54.906;73.316;2022-07-29T14:40:36;8.25;8.00;3.75
65973;PMS5003;52729;54.906;73.316;2022-07-29T14:43:37;6.75;6.75;2.25
65973;PMS5003;52729;54.906;73.316;2022-07-29T14:46:38;5.00;5.00;2.00
65973;PMS5003;52729;54.906;73.316;2022-07-29T14:49:45;5.50;5.00;2.00
65973;PMS5003;52729;54.906;73.316;2022-07-29T14:52:46;6.00;5.00;2.00
65973;PMS5003;52729;54.906;73.316;2022-07-29T14:55:47;6.00;5.25;2.00
65973;PMS5003;52729;54.906;73.316;2022-07-29T14:58:51;4.50;4.25;1.00
65973;PMS5003;52729;54.906;73.316;2022-07-29T15:01:54;7.00;6.50;2.50
65973;PMS5003;52729;54.906;73.316;2022-07-29T15:05:01;5.00;5.00;2.00
65973;PMS5003;52729;54.906;73.316;2022-07-29T15:08:03;7.00;6.00;2.00
65973;PMS5003;52729;54.906;73.316;2022-07-29T15:11:09;7.00;7.00;3.00
65973;PMS5003;52729;54.906;73.316;2022-07-29T15:14:10;7.75;7.75;4.00
65973;PMS5003;52729;54.906;73.316;2022-07-29T15:17:11;8.00;8.00;3.75
65973;PMS5003;52729;54.906;73.316;2022-07-29T15:20:12;9.25;8.75;4.00
65973;PMS5003;52729;54.906;73.316;2022-07-29T15:23:13;9.75;8.00;4.50
65973;PMS5003;52729;54.906;73.316;2022-07-29T15:26:14;6.00;6.00;3.00
65973;PMS5003;52729;54.906;73.316;2022-07-29T15:29:15;6.00;5.25;2.00
65973;PMS5003;52729;54.906;73.316;2022-07-29T15:32:26;5.50;5.50;2.25
65973;PMS5003;52729;54.906;73.316;2022-07-29T15:35:27;5.00;4.00;2.00
65973;PMS5003;52729;54.906;73.316;2022-07-29T15:38:33;4.75;4.75;2.00
65973;PMS5003;52729;54.906;73.316;2022-07-29T15:41:34;3.75;3.75;1.00
65973;PMS5003;52729;54.906;73.316;2022-07-29T15:44:40;3.00;3.00;1.50
65973;PMS5003;52729;54.906;73.316;2022-07-29T15:47:41;4.00;3.00;2.00
65973;PMS5003;52729;54.906;73.316;2022-07-29T15:50:47;3.00;3.00;1.00
65973;PMS5003;52729;54.906;73.316;2022-07-29T15:54:00;4.00;4.00;1.00
65973;PMS5003;52729;54.906;73.316;2022-07-29T15:57:02;5.00;4.00;0.00
65973;PMS5003;52729;54.906;73.316;2022-07-29T16:00:09;6.00;5.00;0.00
65973;PMS5003;52729;54.906;73.316;2022-07-29T16:03:10;4.00;4.00;0.00
65973;PMS5003;52729;54.906;73.316;2022-07-29T16:06:12;5.00;3.75;0.75
65973;PMS5003;52729;54.906;73.316;2022-07-29T16:09:13;6.00;4.00;2.00
65973;PMS5003;52729;54.906;73.316;2022-07-29T16:12:14;6.00;4.50;1.00
65973;PMS5003;52729;54.906;73.316;2022-07-29T16:15:16;4.00;3.50;1.00
65973;PMS5003;52729;54.906;73.316;2022-07-29T16:18:17;3.75;3.00;0.00
65973;PMS5003;52729;54.906;73.316;2022-07-29T16:21:18;4.00;4.00;0.00
65973;PMS5003;52729;54.906;73.316;2022-07-29T16:24:19;4.00;3.75;0.00
65973;PMS5003;52729;54.906;73.316;2022-07-29T16:27:31;2.00;2.00;0.00
65973;PMS5003;52729;54.906;73.316;2022-07-29T16:30:33;3.00;2.00;0.00
65973;PMS5003;52729;54.906;73.316;2022-07-29T16:33:39;2.00;2.00;0.00
65973;PMS5003;52729;54.906;73.316;2022-07-29T16:36:50;2.25;2.00;0.00
65973;PMS5003;52729;54.906;73.316;2022-07-29T16:39:55;3.25;3.25;0.00
65973;PMS5003;52729;54.906;73.316;2022-07-29T16:42:59;3.00;3.00;1.00
65973;PMS5003;52729;54.906;73.316;2022-07-29T16:46:00;4.00;3.25;1.00
65973;PMS5003;52729;54.906;73.316;2022-07-29T16:49:01;4.00;3.00;1.00
65973;PMS5003;52729;54.906;73.316;2022-07-29T16:52:03;4.00;4.00;1.00
65973;PMS5003;52729;54.906;73.316;2022-07-29T16:55:14;4.50;4.00;0.00
65973;PMS5003;52729;54.906;73.316;2022-07-29T16:58:15;4.00;3.00;0.00
65973;PMS5003;52729;54.906;73.316;2022-07-29T17:01:16;3.00;3.00;0.50
65973;PMS5003;52729;54.906;73.316;2022-07-29T17:04:23;5.75;3.25;0.00
65973;PMS5003;52729;54.906;73.316;2022-07-29T17:07:29;3.50;3.00;0.00
65973;PMS5003;52729;54.906;73.316;2022-07-29T17:10:31;2.50;2.50;0.00
65973;PMS5003;52729;54.906;73.316;2022-07-29T17:13:32;4.50;3.50;1.00
65973;PMS5003;52729;54.906;73.316;2022-07-29T17:16:33;4.50;3.75;0.75
65973;PMS5003;52729;54.906;73.316;2022-07-29T17:19:39;2.50;2.00;0.00
65973;PMS5003;52729;54.906;73.316;2022-07-29T17:22:46;3.00;2.00;0.00
65973;PMS5003;52729;54.906;73.316;2022-07-29T17:25:49;1.00;1.00;0.00
65973;PMS5003;52729;54.906;73.316;2022-07-29T17:29:00;2.25;2.25;1.00
65973;PMS5003;52729;54.906;73.316;2022-07-29T17:32:01;2.00;2.00;0.00
65973;PMS5003;52729;54.906;73.316;2022-07-29T17:35:06;3.00;3.00;0.00
65973;PMS5003;52729;54.906;73.316;2022-07-29T17:38:27;2.00;2.00;0.00
65973;PMS5003;52729;54.906;73.316;2022-07-29T17:41:28;2.00;1.25;0.00
65973;PMS5003;52729;54.906;73.316;2022-07-29T17:44:40;2.50;1.00;0.00
65973;PMS5003;52729;54.906;73.316;2022-07-29T17:47:41;3.00;0.00;0.00
65973;PMS5003;52729;54.906;73.316;2022-07-29T17:50:49;3.00;1.75;0.00
65973;PMS5003;52729;54.906;73.316;2022-07-29T17:53:56;3.75;3.00;0.00
65973;PMS5003;52729;54.906;73.316;2022-07-29T17:57:02;3.00;2.50;0.00
65973;PMS5003;52729;54.906;73.316;2022-07-29T18:00:04;2.00;1.00;0.00
65973;PMS5003;52729;54.906;73.316;2022-07-29T18:03:07;1.00;1.00;0.00